createdAt,value
2022-12-08T00:03:03.360Z,75.31
2022-12-08T00:06:33.872Z,75.26
2022-12-08T00:09:43.387Z,75.46
2022-12-08T00:12:46.836Z,75.38
2022-12-08T00:15:49.534Z,75.48
2022-12-08T00:18:52.375Z,75.24
2022-12-08T00:21:56.491Z,75.36
2022-12-08T00:24:59.900Z,74.79
2022-12-08T00:28:02.335Z,74.88
2022-12-08T00:31:10.244Z,74.88
2022-12-08T00:34:16.292Z,74.96
2022-12-08T00:37:25.905Z,75.23
2022-12-08T00:40:35.461Z,75.34
2022-12-08T00:43:39.340Z,75.27
2022-12-08T00:46:42.257Z,74.87
2022-12-08T00:49:45.318Z,74.87
2022-12-08T00:52:50.510Z,75.08
2022-12-08T00:55:53.238Z,74.99
2022-12-08T00:58:55.731Z,74.83
2022-12-08T01:02:02.920Z,75.19
2022-12-08T01:05:07.278Z,75.19
2022-12-08T01:08:11.356Z,75.49
2022-12-08T01:11:17.861Z,75.59
2022-12-08T01:14:24.508Z,75.32
2022-12-08T01:17:26.864Z,75.59
2022-12-08T01:20:29.577Z,75.75
2022-12-08T01:23:32.083Z,75.62
2022-12-08T01:26:38.310Z,76.09
2022-12-08T01:29:41.328Z,76.32
2022-12-08T01:32:45.896Z,76.33
2022-12-08T01:35:48.494Z,76.41
2022-12-08T01:38:52.426Z,76.11
2022-12-08T01:41:54.789Z,76.25
2022-12-08T01:45:00.597Z,76.50
2022-12-08T01:48:09.315Z,76.82
2022-12-08T01:51:16.230Z,76.72
2022-12-08T01:54:24.781Z,76.99
2022-12-08T01:57:47.218Z,77.01
2022-12-08T02:00:52.198Z,77.26
2022-12-08T02:04:01.158Z,77.35
2022-12-08T02:07:08.110Z,77.63
2022-12-08T02:10:16.325Z,77.85
2022-12-08T02:13:21.484Z,77.76
2022-12-08T02:17:12.787Z,77.65
2022-12-08T02:20:24.149Z,78.01
2022-12-08T02:24:05.792Z,78.00
2022-12-08T02:27:30.314Z,77.88
2022-12-08T02:30:45.118Z,77.96
2022-12-08T02:34:07.284Z,78.30
2022-12-08T02:37:28.230Z,78.60
2022-12-08T02:40:44.181Z,78.20
2022-12-08T02:44:15.880Z,78.20
2022-12-08T02:47:20.335Z,78.25
2022-12-08T02:50:26.126Z,78.03
2022-12-08T02:53:31.916Z,78.06
2022-12-08T02:57:00.496Z,78.16
2022-12-08T03:00:08.669Z,78.20
2022-12-08T03:04:00.710Z,78.24
2022-12-08T03:07:10.351Z,78.18
2022-12-08T03:10:21.133Z,78.25
2022-12-08T03:13:29.365Z,78.24
2022-12-08T03:16:36.664Z,78.01
2022-12-08T03:19:42.562Z,78.21
2022-12-08T03:22:47.178Z,78.11
2022-12-08T03:25:59.864Z,78.12
2022-12-08T03:29:02.982Z,78.17
2022-12-08T03:32:17.367Z,78.46
2022-12-08T03:35:24.409Z,78.43
2022-12-08T03:38:29.587Z,78.38
2022-12-08T03:41:33.299Z,78.21
2022-12-08T03:44:35.979Z,78.53
2022-12-08T03:47:41.359Z,77.89
2022-12-08T03:50:44.607Z,77.88
2022-12-08T03:53:47.770Z,77.43
2022-12-08T03:56:52.634Z,77.44
2022-12-08T03:59:59.716Z,77.00
2022-12-08T04:03:02.279Z,76.69
2022-12-08T04:06:06.307Z,77.21
2022-12-08T04:09:09.318Z,76.77
2022-12-08T04:12:12.011Z,76.21
2022-12-08T04:15:14.358Z,76.00
2022-12-08T04:18:17.031Z,76.29
2022-12-08T04:21:20.394Z,76.11
2022-12-08T04:24:23.158Z,76.35
2022-12-08T04:27:25.521Z,75.94
2022-12-08T04:30:29.397Z,76.14
2022-12-08T04:33:32.176Z,75.88
2022-12-08T04:36:34.892Z,76.06
2022-12-08T04:39:37.374Z,75.92
2022-12-08T04:42:40.015Z,76.01
2022-12-08T04:45:48.544Z,75.74
2022-12-08T04:49:10.666Z,75.68
2022-12-08T04:55:56.757Z,75.82
2022-12-08T04:58:59.196Z,75.59
2022-12-08T05:02:02.476Z,75.87
2022-12-08T05:05:05.640Z,75.65
2022-12-08T05:08:09.877Z,75.33
2022-12-08T05:11:13.890Z,75.22
2022-12-08T05:14:18.725Z,75.37
2022-12-08T05:17:21.302Z,75.38
2022-12-08T05:20:24.049Z,75.82
2022-12-08T05:23:29.396Z,76.37
2022-12-08T05:26:32.035Z,76.70
2022-12-08T05:29:35.765Z,76.83
2022-12-08T05:32:38.260Z,77.51
2022-12-08T05:35:40.576Z,77.42
2022-12-08T05:38:48.443Z,77.91
2022-12-08T05:41:50.867Z,77.51
2022-12-08T05:44:53.564Z,77.64
2022-12-08T05:47:55.907Z,77.84
2022-12-08T05:50:58.527Z,77.77
2022-12-08T05:54:00.970Z,78.04
2022-12-08T05:57:03.773Z,78.14
2022-12-08T06:00:07.558Z,78.36
2022-12-08T06:03:16.095Z,77.96
2022-12-08T06:06:20.005Z,78.21
2022-12-08T06:09:22.464Z,78.34
2022-12-08T06:12:25.260Z,78.09
2022-12-08T06:15:27.972Z,77.92
2022-12-08T06:18:32.829Z,77.91
2022-12-08T06:21:35.980Z,78.01
2022-12-08T06:24:38.766Z,77.88
2022-12-08T06:27:41.091Z,77.53
2022-12-08T06:30:45.362Z,77.38
2022-12-08T06:33:48.603Z,77.31
2022-12-08T06:36:52.665Z,77.38
2022-12-08T06:39:55.291Z,77.27
2022-12-08T06:42:59.078Z,76.88
2022-12-08T06:46:02.365Z,76.65
2022-12-08T06:49:05.139Z,76.59
2022-12-08T06:52:08.552Z,76.53
2022-12-08T06:55:29.187Z,76.91
2022-12-08T06:58:36.258Z,76.89
2022-12-08T07:01:41.895Z,76.53
2022-12-08T07:04:44.594Z,76.53
2022-12-08T07:07:47.343Z,76.29
2022-12-08T07:10:51.592Z,76.25
2022-12-08T07:14:00.418Z,76.26
2022-12-08T07:17:03.513Z,76.35
2022-12-08T07:20:07.366Z,76.10
2022-12-08T07:23:09.902Z,75.74
2022-12-08T07:26:13.688Z,75.81
2022-12-08T07:29:16.933Z,75.91
2022-12-08T07:32:21.097Z,75.64
2022-12-08T07:35:23.301Z,75.43
2022-12-08T07:38:26.679Z,75.53
2022-12-08T07:41:29.106Z,75.63
2022-12-08T07:44:32.014Z,75.50
2022-12-08T07:47:34.332Z,75.40
2022-12-08T07:50:37.178Z,75.11
2022-12-08T07:53:48.543Z,74.98
2022-12-08T07:56:57.972Z,74.78
2022-12-08T08:00:00.403Z,75.23
2022-12-08T08:03:03.126Z,74.64
2022-12-08T08:06:05.997Z,74.49
2022-12-08T08:09:10.056Z,74.14
2022-12-08T08:12:30.839Z,73.91
2022-12-08T08:15:34.001Z,73.30
2022-12-08T08:18:37.871Z,72.76
2022-12-08T08:21:46.290Z,72.58
2022-12-08T08:24:49.125Z,71.91
2022-12-08T08:27:51.599Z,71.19
2022-12-08T08:30:54.511Z,71.33
2022-12-08T08:33:57.416Z,71.52
2022-12-08T08:37:00.028Z,71.42
2022-12-08T08:40:03.075Z,71.06
2022-12-08T08:43:07.054Z,70.67
2022-12-08T08:46:10.205Z,70.75
2022-12-08T08:49:13.193Z,70.48
2022-12-08T08:52:15.751Z,70.11
2022-12-08T08:55:19.993Z,69.90
2022-12-08T08:58:22.231Z,69.29
2022-12-08T09:01:27.861Z,69.47
2022-12-08T09:04:30.494Z,69.33
2022-12-08T09:07:36.126Z,69.05
2022-12-08T09:10:38.592Z,69.44
2022-12-08T09:13:41.181Z,69.48
2022-12-08T09:16:44.334Z,69.71
2022-12-08T09:19:47.131Z,69.74
2022-12-08T09:22:49.415Z,69.59
2022-12-08T09:25:52.026Z,70.43
2022-12-08T09:28:55.798Z,70.25
2022-12-08T09:31:58.275Z,69.74
2022-12-08T09:35:01.627Z,69.82
2022-12-08T09:38:05.001Z,70.53
2022-12-08T09:41:37.483Z,69.75
2022-12-08T09:45:04.800Z,70.48
2022-12-08T09:48:14.953Z,69.62
2022-12-08T09:51:17.699Z,70.13
2022-12-08T09:54:25.653Z,70.08
2022-12-08T09:57:30.363Z,70.40
2022-12-08T10:00:40.123Z,70.10
2022-12-08T10:03:43.197Z,70.35
2022-12-08T10:07:04.798Z,70.14
2022-12-08T10:10:22.796Z,70.97
2022-12-08T10:13:37.689Z,70.72
2022-12-08T10:16:48.538Z,70.61
2022-12-08T10:20:07.552Z,70.35
2022-12-08T10:23:27.774Z,70.00
2022-12-08T10:26:33.018Z,69.79
2022-12-08T10:29:35.544Z,69.76
2022-12-08T10:32:38.227Z,69.44
2022-12-08T10:35:47.591Z,69.06
2022-12-08T10:38:49.922Z,69.55
2022-12-08T10:41:52.523Z,69.10
2022-12-08T10:45:10.567Z,68.68
2022-12-08T10:48:29.090Z,69.23
2022-12-08T10:51:34.192Z,69.47
2022-12-08T10:54:42.012Z,69.14
2022-12-08T10:57:44.366Z,68.64
2022-12-08T11:00:47.165Z,68.51
2022-12-08T11:03:59.709Z,67.96
2022-12-08T11:07:04.904Z,67.74
2022-12-08T11:10:18.785Z,68.31
2022-12-08T11:13:29.883Z,67.52
2022-12-08T11:16:32.308Z,67.65
2022-12-08T11:19:44.348Z,66.81
2022-12-08T11:22:53.276Z,65.87
2022-12-08T11:26:01.325Z,65.36
2022-12-08T11:29:04.448Z,65.28
2022-12-08T11:32:12.928Z,65.13
2022-12-08T11:35:30.232Z,65.33
2022-12-08T11:38:34.040Z,65.20
2022-12-08T11:41:41.180Z,65.79
2022-12-08T11:44:53.137Z,65.90
2022-12-08T11:48:17.426Z,65.97
2022-12-08T11:51:28.353Z,65.44
2022-12-08T11:54:45.414Z,65.46
2022-12-08T11:57:50.879Z,65.18
2022-12-08T12:00:53.141Z,65.65
2022-12-08T12:04:13.985Z,65.64
2022-12-08T12:07:42.569Z,65.58
2022-12-08T12:11:02.956Z,65.78
2022-12-08T12:14:17.938Z,65.81
2022-12-08T12:17:47.976Z,65.81
2022-12-08T12:21:11.521Z,65.60
2022-12-08T12:24:35.588Z,65.74
2022-12-08T12:27:41.531Z,65.66
2022-12-08T12:31:06.997Z,65.51
2022-12-08T12:34:22.166Z,65.46
2022-12-08T12:37:35.342Z,64.93
2022-12-08T12:40:42.021Z,65.45
2022-12-08T12:44:10.516Z,65.01
2022-12-08T12:47:14.964Z,64.95
2022-12-08T12:50:37.258Z,65.19
2022-12-08T12:53:39.517Z,64.76
2022-12-08T12:56:54.695Z,64.55
2022-12-08T13:00:00.092Z,65.19
2022-12-08T13:03:03.013Z,65.22
2022-12-08T13:06:09.951Z,65.36
2022-12-08T13:09:27.336Z,64.38
2022-12-08T13:12:29.845Z,65.12
2022-12-08T13:15:52.594Z,64.44
2022-12-08T13:19:02.415Z,64.84
2022-12-08T13:22:43.360Z,64.59
2022-12-08T13:25:48.290Z,64.15
2022-12-08T13:29:01.226Z,64.66
2022-12-08T13:32:24.966Z,64.25
2022-12-08T13:35:27.913Z,63.70
2022-12-08T13:38:32.417Z,63.45
2022-12-08T13:41:43.566Z,64.14
2022-12-08T13:45:39.612Z,64.28
2022-12-08T13:53:49.356Z,63.58
2022-12-08T13:59:18.605Z,64.92
2022-12-08T14:02:36.267Z,65.89
2022-12-08T14:06:11.014Z,65.60
2022-12-08T14:09:12.676Z,65.83
2022-12-08T14:12:27.810Z,65.46
2022-12-08T14:15:37.897Z,65.93
2022-12-08T14:18:40.999Z,64.90
2022-12-08T14:21:47.906Z,64.94
2022-12-08T14:24:53.275Z,64.96
2022-12-08T14:28:05.310Z,64.85
2022-12-08T14:31:08.643Z,65.11
2022-12-08T14:34:18.859Z,64.98
2022-12-08T14:37:22.509Z,65.61
2022-12-08T14:40:36.116Z,65.00
2022-12-08T14:43:40.890Z,65.25
2022-12-08T14:47:11.593Z,65.54
2022-12-08T14:50:38.665Z,64.91
2022-12-08T14:53:58.920Z,65.43
2022-12-08T14:57:02.858Z,65.66
2022-12-08T15:00:11.575Z,66.01
2022-12-08T15:03:17.287Z,65.60
2022-12-08T15:06:22.428Z,65.67
2022-12-08T15:09:43.144Z,66.91
2022-12-08T15:13:07.425Z,66.42
2022-12-08T15:16:28.624Z,66.46
2022-12-08T15:19:33.424Z,66.46
2022-12-08T15:22:36.072Z,66.59
2022-12-08T15:25:38.332Z,66.76
2022-12-08T15:28:40.831Z,66.46
2022-12-08T15:31:43.209Z,66.09
2022-12-08T15:34:45.852Z,66.09
2022-12-08T15:37:53.237Z,66.47
2022-12-08T15:41:02.105Z,66.49
2022-12-08T15:44:12.197Z,66.21
2022-12-08T15:47:21.346Z,66.32
2022-12-08T15:50:54.086Z,67.14
2022-12-08T16:09:12.919Z,67.11
2022-12-08T16:13:55.445Z,67.69
2022-12-08T16:16:34.311Z,68.13
2022-12-08T16:19:47.630Z,67.73
2022-12-08T16:23:03.593Z,67.77
2022-12-08T16:27:22.030Z,68.09
2022-12-08T16:29:48.399Z,69.15
2022-12-08T16:32:58.489Z,69.04
2022-12-08T16:36:02.811Z,70.14
2022-12-08T16:39:15.750Z,69.93
2022-12-08T16:42:40.919Z,69.89
2022-12-08T16:45:45.235Z,69.75
2022-12-08T16:48:48.296Z,69.88
2022-12-08T16:51:53.502Z,69.87
2022-12-08T16:54:57.842Z,70.15
2022-12-08T16:58:04.776Z,70.32
2022-12-08T17:01:19.368Z,70.44
2022-12-08T17:04:34.724Z,71.19
2022-12-08T17:07:37.693Z,71.57
2022-12-08T17:10:45.470Z,71.76
2022-12-08T17:13:59.172Z,71.38
2022-12-08T17:17:11.980Z,71.38
2022-12-08T17:20:36.633Z,70.55
2022-12-08T17:23:41.537Z,70.49
2022-12-08T17:26:50.330Z,70.34
2022-12-08T17:29:59.180Z,70.32
2022-12-08T17:33:12.312Z,70.28
2022-12-08T17:36:21.970Z,70.01
2022-12-08T17:39:27.010Z,70.26
2022-12-08T17:42:31.609Z,70.72
2022-12-08T17:45:34.323Z,70.56
2022-12-08T17:48:37.405Z,70.37
2022-12-08T17:51:40.004Z,70.35
2022-12-08T17:54:43.291Z,70.40
2022-12-08T17:57:47.200Z,70.42
2022-12-08T18:00:51.494Z,70.32
2022-12-08T18:03:54.264Z,70.57
2022-12-08T18:06:59.468Z,70.42
2022-12-08T18:10:02.369Z,70.42
2022-12-08T18:13:05.695Z,70.18
2022-12-08T18:16:21.441Z,70.78
2022-12-08T18:19:24.006Z,70.50
2022-12-08T18:22:32.124Z,70.54
2022-12-08T18:25:34.543Z,70.40
2022-12-08T18:28:41.195Z,70.50
2022-12-08T18:32:07.622Z,70.59
2022-12-08T18:35:21.869Z,70.74
2022-12-08T18:38:24.322Z,70.09
2022-12-08T18:41:27.360Z,70.50
2022-12-08T18:44:31.243Z,70.57
2022-12-08T18:47:36.613Z,70.48
2022-12-08T18:50:43.161Z,70.88
2022-12-08T18:53:46.894Z,70.34
2022-12-08T18:56:49.681Z,71.07
2022-12-08T19:00:10.957Z,70.33
2022-12-08T19:03:13.381Z,69.80
2022-12-08T19:06:16.346Z,70.16
2022-12-08T19:12:53.869Z,69.60
2022-12-08T19:15:58.072Z,69.53
2022-12-08T19:19:02.200Z,70.16
2022-12-08T19:22:07.713Z,69.76
2022-12-08T19:25:12.676Z,70.93
2022-12-08T19:28:15.325Z,70.89
2022-12-08T19:31:20.983Z,71.40
2022-12-08T19:34:23.827Z,70.97
2022-12-08T19:37:28.543Z,71.27
2022-12-08T19:40:49.755Z,71.20
2022-12-08T19:44:10.803Z,71.24
2022-12-08T19:47:14.721Z,71.50
2022-12-08T19:50:35.996Z,71.07
2022-12-08T19:53:41.865Z,71.21
2022-12-08T19:56:48.304Z,71.47
2022-12-08T19:59:56.418Z,71.45
2022-12-08T20:03:00.672Z,71.85
2022-12-08T20:06:05.095Z,72.02
2022-12-08T20:09:08.684Z,71.91
2022-12-08T20:12:14.849Z,72.25
2022-12-08T20:15:17.921Z,72.31
2022-12-08T20:18:23.272Z,72.69
2022-12-08T20:21:26.014Z,72.62
2022-12-08T20:24:38.980Z,72.58
2022-12-08T20:27:43.598Z,72.68
2022-12-08T20:30:55.820Z,72.68
2022-12-08T20:34:02.704Z,73.01
2022-12-08T20:37:07.837Z,72.36
2022-12-08T20:40:16.009Z,73.00
2022-12-08T20:43:19.429Z,72.83
2022-12-08T20:46:38.569Z,72.74
2022-12-08T20:49:45.557Z,73.25
2022-12-08T20:52:56.822Z,72.92
2022-12-08T20:55:59.479Z,73.46
2022-12-08T20:59:07.332Z,73.68
2022-12-08T21:02:16.841Z,73.86
2022-12-08T21:05:19.690Z,74.28
2022-12-08T21:08:28.493Z,74.31
2022-12-08T21:12:03.751Z,74.41
2022-12-08T21:15:08.146Z,74.61
2022-12-08T21:18:10.741Z,74.86
2022-12-08T21:21:17.853Z,74.85
2022-12-08T21:24:20.785Z,74.97
2022-12-08T21:27:23.698Z,74.95
2022-12-08T21:30:26.040Z,75.25
2022-12-08T21:33:29.010Z,75.36
2022-12-08T21:36:32.002Z,75.47
2022-12-08T21:39:34.756Z,75.80
2022-12-08T21:42:46.405Z,75.43
2022-12-08T21:45:49.630Z,75.44
2022-12-08T21:48:53.337Z,75.54
2022-12-08T21:51:56.625Z,75.27
2022-12-08T21:55:01.398Z,74.78
2022-12-08T21:58:04.320Z,75.22
2022-12-08T22:01:11.844Z,75.49
2022-12-08T22:04:18.980Z,75.73
2022-12-08T22:07:21.716Z,75.64
2022-12-08T22:10:24.701Z,75.64
2022-12-08T22:13:28.680Z,76.10
2022-12-08T22:16:33.163Z,76.16
2022-12-08T22:19:35.862Z,76.40
2022-12-08T22:22:40.053Z,76.54
2022-12-08T22:25:42.505Z,76.59
2022-12-08T22:28:45.267Z,76.81
2022-12-08T22:31:47.896Z,76.58
2022-12-08T22:34:50.596Z,76.74
2022-12-08T22:37:53.075Z,76.60
2022-12-08T22:40:55.932Z,76.90
2022-12-08T22:43:58.212Z,76.84
2022-12-08T22:47:01.001Z,76.84
2022-12-08T22:50:04.844Z,76.87
2022-12-08T22:53:07.779Z,77.09
2022-12-08T22:56:13.356Z,76.99
2022-12-08T22:59:16.138Z,76.96
2022-12-08T23:02:18.688Z,77.01
2022-12-08T23:05:21.585Z,77.02
2022-12-08T23:08:24.587Z,77.20
2022-12-08T23:11:30.951Z,77.04
2022-12-08T23:14:33.340Z,77.13
2022-12-08T23:17:36.205Z,77.16
2022-12-08T23:20:38.766Z,77.30
2022-12-08T23:23:42.037Z,77.42
2022-12-08T23:26:44.415Z,77.61
2022-12-08T23:29:47.177Z,77.41
2022-12-08T23:32:49.686Z,77.62
2022-12-08T23:35:58.835Z,77.76
2022-12-08T23:39:01.351Z,77.92
2022-12-08T23:42:04.328Z,77.96
2022-12-08T23:45:08.909Z,78.02
2022-12-08T23:48:11.720Z,78.12
2022-12-08T23:51:14.553Z,78.27
2022-12-08T23:54:17.863Z,78.33
2022-12-08T23:57:21.197Z,78.48
